createdAt,value
2023-01-04T00:03:40.862Z,27.25
2023-01-04T00:08:44.854Z,25.70
2023-01-04T00:13:50.911Z,24.88
2023-01-04T00:18:56.143Z,25.75
2023-01-04T00:24:01.612Z,26.73
2023-01-04T00:29:08.231Z,28.75
2023-01-04T00:34:13.910Z,27.92
2023-01-04T00:39:18.302Z,25.70
2023-01-04T00:44:23.014Z,30.60
2023-01-04T00:49:27.290Z,26.50
2023-01-04T00:54:30.735Z,25.48
2023-01-04T00:59:35.530Z,25.70
2023-01-04T01:04:38.945Z,24.05
2023-01-04T01:09:42.339Z,25.73
2023-01-04T01:14:47.263Z,24.60
2023-01-04T01:19:50.935Z,24.60
2023-01-04T01:24:54.323Z,24.40
2023-01-04T01:29:59.539Z,24.48
2023-01-04T01:35:02.987Z,21.40
2023-01-04T01:40:07.440Z,22.17
2023-01-04T01:45:26.951Z,19.35
2023-01-04T01:50:36.640Z,18.02
2023-01-04T01:55:41.554Z,18.58
2023-01-04T02:00:46.403Z,16.33
2023-01-04T02:05:53.285Z,17.30
2023-01-04T02:10:57.126Z,16.48
2023-01-04T02:16:10.994Z,14.73
2023-01-04T02:21:22.882Z,15.25
2023-01-04T02:26:58.257Z,14.85
2023-01-04T02:32:06.811Z,17.60
2023-01-04T02:37:18.751Z,17.25
2023-01-04T02:42:50.612Z,18.45
2023-01-04T02:48:12.172Z,15.82
2023-01-04T02:53:20.992Z,14.63
2023-01-04T02:58:42.558Z,13.93
2023-01-04T03:04:14.536Z,14.20
2023-01-04T03:09:22.733Z,13.55
2023-01-04T03:14:31.594Z,13.23
2023-01-04T03:19:54.055Z,13.77
2023-01-04T03:25:16.305Z,12.02
2023-01-04T03:30:39.655Z,12.57
2023-01-04T03:35:48.897Z,11.80
2023-01-04T03:41:19.410Z,10.18
2023-01-04T03:46:49.590Z,9.55
2023-01-04T03:51:58.501Z,10.80
2023-01-04T03:57:03.842Z,11.05
2023-01-04T04:02:10.503Z,9.90
2023-01-04T04:07:32.861Z,9.82
2023-01-04T04:12:36.274Z,9.88
2023-01-04T04:17:39.694Z,9.52
2023-01-04T04:22:44.441Z,9.10
2023-01-04T04:27:47.869Z,10.20
2023-01-04T04:32:51.326Z,10.70
2023-01-04T04:37:56.203Z,9.98
2023-01-04T04:42:59.894Z,11.32
2023-01-04T04:48:03.355Z,11.80
2023-01-04T04:53:08.150Z,10.50
2023-01-04T04:58:11.580Z,10.90
2023-01-04T05:03:15.011Z,10.63
2023-01-04T05:08:19.921Z,11.23
2023-01-04T05:13:23.905Z,11.20
2023-01-04T05:18:27.298Z,12.63
2023-01-04T05:23:32.080Z,11.45
2023-01-04T05:28:35.510Z,12.52
2023-01-04T05:33:39.104Z,13.73
2023-01-04T05:38:43.903Z,13.00
2023-01-04T05:43:47.572Z,12.38
2023-01-04T05:48:51.108Z,13.10
2023-01-04T05:53:55.810Z,11.88
2023-01-04T05:58:59.213Z,13.32
2023-01-04T06:04:02.692Z,12.93
2023-01-04T06:09:07.804Z,13.63
2023-01-04T06:14:11.545Z,14.15
2023-01-04T06:19:14.956Z,13.20
2023-01-04T06:24:19.891Z,13.27
2023-01-04T06:29:23.597Z,12.93
2023-01-04T06:34:30.769Z,12.00
2023-01-04T06:39:37.377Z,13.05
2023-01-04T06:44:40.805Z,14.25
2023-01-04T06:49:44.257Z,12.27
2023-01-04T06:54:49.095Z,12.13
2023-01-04T06:59:52.527Z,9.57
2023-01-04T07:04:56.237Z,9.57
2023-01-04T07:10:05.402Z,8.90
2023-01-04T07:15:39.636Z,8.65
2023-01-04T07:20:37.431Z,7.18
2023-01-04T07:25:42.228Z,8.43
2023-01-04T07:30:45.703Z,9.65
2023-01-04T07:35:49.744Z,9.48
2023-01-04T07:40:57.155Z,8.50
2023-01-04T07:46:01.181Z,8.55
2023-01-04T07:51:04.771Z,9.63
2023-01-04T07:56:15.185Z,9.15
2023-01-04T08:01:21.909Z,8.88
2023-01-04T08:06:25.477Z,8.18
2023-01-04T08:11:30.359Z,8.80
2023-01-04T08:16:35.795Z,10.35
2023-01-04T08:21:39.908Z,8.18
2023-01-04T08:26:45.324Z,7.95
2023-01-04T08:31:48.822Z,8.88
2023-01-04T08:36:53.415Z,7.88
2023-01-04T08:42:06.789Z,7.97
2023-01-04T08:47:14.511Z,8.27
2023-01-04T08:52:18.177Z,7.28
2023-01-04T08:57:22.919Z,7.82
2023-01-04T09:02:28.738Z,7.55
2023-01-04T09:07:33.014Z,7.88
2023-01-04T09:12:38.050Z,7.40
2023-01-04T09:17:58.011Z,7.65
2023-01-04T09:23:04.724Z,7.00
2023-01-04T09:28:09.470Z,6.63
2023-01-04T09:33:12.972Z,6.28
2023-01-04T09:38:16.378Z,5.70
2023-01-04T09:43:23.547Z,5.63
2023-01-04T09:48:29.861Z,4.55
2023-01-04T09:53:40.471Z,4.40
2023-01-04T09:58:46.345Z,4.40
2023-01-04T10:03:59.280Z,4.40
2023-01-04T10:09:05.720Z,4.30
2023-01-04T10:14:31.299Z,3.70
2023-01-04T10:25:32.251Z,3.08
2023-01-04T10:30:46.058Z,3.53
2023-01-04T10:35:50.547Z,2.90
2023-01-04T10:40:57.323Z,2.60
2023-01-04T10:46:12.162Z,2.38
2023-01-04T10:51:21.207Z,2.72
2023-01-04T10:56:30.877Z,3.35
2023-01-04T11:01:41.226Z,2.08
2023-01-04T11:06:50.003Z,2.40
2023-01-04T11:11:56.750Z,2.13
2023-01-04T11:17:05.803Z,2.10
2023-01-04T11:22:15.759Z,2.47
2023-01-04T11:27:26.897Z,2.20
2023-01-04T11:32:40.427Z,2.03
2023-01-04T11:42:48.635Z,1.45
2023-01-04T11:47:55.382Z,1.90
2023-01-04T11:52:58.870Z,1.55
2023-01-04T11:58:09.547Z,1.92
2023-01-04T12:03:16.239Z,2.08
2023-01-04T12:08:30.407Z,2.30
2023-01-04T12:13:35.219Z,2.03
2023-01-04T12:18:42.861Z,1.80
2023-01-04T12:23:46.954Z,1.75
2023-01-04T12:28:53.736Z,1.60
2023-01-04T12:34:00.883Z,1.55
2023-01-04T12:39:07.347Z,1.67
2023-01-04T12:44:46.942Z,1.73
2023-01-04T12:50:02.907Z,1.77
2023-01-04T12:55:44.139Z,1.55
2023-01-04T13:01:25.087Z,1.80
2023-01-04T13:06:32.974Z,1.58
2023-01-04T13:12:12.671Z,2.80
2023-01-04T13:17:20.337Z,1.73
2023-01-04T13:22:29.835Z,2.03
2023-01-04T13:27:34.188Z,2.17
2023-01-04T13:33:15.123Z,2.10
2023-01-04T13:38:05.572Z,2.25
2023-01-04T13:43:25.460Z,2.78
2023-01-04T13:48:36.654Z,2.38
2023-01-04T13:53:42.185Z,2.40
2023-01-04T13:58:45.893Z,2.33
2023-01-04T14:03:52.781Z,2.40
2023-01-04T14:09:07.729Z,2.10
2023-01-04T14:14:26.193Z,3.05
2023-01-04T14:19:43.963Z,3.25
2023-01-04T14:30:23.786Z,2.80
2023-01-04T14:35:28.814Z,2.50
2023-01-04T14:40:33.658Z,2.42
2023-01-04T14:45:37.100Z,3.03
2023-01-04T14:50:40.603Z,3.75
2023-01-04T14:55:45.396Z,2.45
2023-01-04T15:00:49.044Z,2.78
2023-01-04T15:05:52.758Z,2.67
2023-01-04T15:11:00.131Z,4.45
2023-01-04T15:16:04.028Z,3.30
2023-01-04T15:21:08.157Z,3.85
2023-01-04T15:26:13.650Z,3.70
2023-01-04T15:31:19.737Z,3.75
2023-01-04T15:36:27.579Z,4.22
2023-01-04T15:41:49.885Z,3.88
2023-01-04T15:46:54.240Z,4.10
2023-01-04T15:51:57.839Z,3.63
2023-01-04T15:57:02.559Z,3.63
2023-01-04T16:02:06.392Z,3.55
2023-01-04T16:07:09.932Z,3.13
2023-01-04T16:12:32.025Z,3.33
2023-01-04T16:17:36.579Z,3.30
2023-01-04T16:22:40.644Z,4.45
2023-01-04T16:27:45.622Z,3.80
2023-01-04T16:32:50.166Z,4.25
2023-01-04T16:37:53.554Z,3.72
2023-01-04T16:42:58.312Z,3.80
2023-01-04T16:48:01.984Z,3.38
2023-01-04T16:53:05.431Z,3.38
2023-01-04T16:58:10.595Z,3.30
2023-01-04T17:03:15.857Z,4.38
2023-01-04T17:08:26.728Z,4.22
2023-01-04T17:13:31.837Z,4.70
2023-01-04T17:18:37.856Z,4.90
2023-01-04T17:23:43.686Z,4.47
2023-01-04T17:28:48.628Z,3.90
2023-01-04T17:33:53.073Z,3.60
2023-01-04T17:38:56.699Z,3.92
2023-01-04T17:44:03.108Z,3.80
2023-01-04T17:49:22.063Z,3.47
2023-01-04T17:54:27.046Z,4.22
2023-01-04T17:59:31.906Z,4.07
2023-01-04T18:04:35.276Z,4.38
2023-01-04T18:09:38.717Z,4.38
2023-01-04T18:14:43.456Z,4.55
2023-01-04T18:19:46.929Z,4.47
2023-01-04T18:24:50.410Z,4.13
2023-01-04T18:29:56.905Z,3.70
2023-01-04T18:35:04.485Z,3.67
2023-01-04T18:40:09.716Z,3.42
2023-01-04T18:45:14.504Z,3.92
2023-01-04T18:50:19.173Z,3.83
2023-01-04T18:55:22.580Z,3.45
2023-01-04T19:00:30.747Z,3.70
2023-01-04T19:05:34.447Z,3.28
2023-01-04T19:10:38.061Z,3.30
2023-01-04T19:15:47.686Z,3.20
2023-01-04T19:20:51.316Z,2.90
2023-01-04T19:25:54.798Z,2.80
2023-01-04T19:30:59.555Z,2.60
2023-01-04T19:36:05.874Z,2.10
2023-01-04T19:41:15.316Z,1.85
2023-01-04T19:46:20.478Z,2.03
2023-01-04T19:51:24.969Z,2.38
2023-01-04T19:56:28.607Z,2.45
2023-01-04T20:01:34.079Z,1.80
2023-01-04T20:06:37.591Z,1.85
2023-01-04T20:11:41.393Z,2.03
2023-01-04T20:16:46.805Z,1.60
2023-01-04T20:21:50.409Z,1.45
2023-01-04T20:26:53.937Z,1.73
2023-01-04T20:32:00.783Z,1.38
2023-01-04T20:37:04.535Z,1.60
2023-01-04T20:42:25.685Z,1.80
2023-01-04T20:47:31.059Z,1.75
2023-01-04T20:52:34.524Z,1.73
2023-01-04T20:57:37.910Z,1.77
2023-01-04T21:02:43.253Z,1.42
2023-01-04T21:07:46.820Z,1.67
2023-01-04T21:12:50.283Z,1.50
2023-01-04T21:17:55.017Z,1.02
2023-01-04T21:22:58.452Z,1.30
2023-01-04T21:28:02.946Z,1.05
2023-01-04T21:33:07.896Z,1.40
2023-01-04T21:38:11.873Z,1.60
2023-01-04T21:43:17.357Z,2.00
2023-01-04T21:48:22.477Z,1.52
2023-01-04T21:53:26.222Z,2.00
2023-01-04T21:58:30.549Z,1.75
2023-01-04T22:03:35.956Z,1.83
2023-01-04T22:08:39.599Z,1.67
2023-01-04T22:13:43.784Z,1.50
2023-01-04T22:18:49.644Z,1.08
2023-01-04T22:23:54.549Z,1.48
2023-01-04T22:28:58.197Z,1.20
2023-01-04T22:34:03.001Z,1.10
2023-01-04T22:39:06.995Z,1.42
2023-01-04T22:44:12.251Z,1.30
2023-01-04T22:49:17.066Z,1.17
2023-01-04T22:54:20.748Z,1.40
2023-01-04T22:59:25.276Z,1.00
2023-01-04T23:04:30.944Z,1.40
2023-01-04T23:09:34.482Z,1.55
2023-01-04T23:14:38.217Z,1.48
2023-01-04T23:19:42.994Z,1.40
2023-01-04T23:24:46.716Z,1.15
2023-01-04T23:29:50.165Z,1.30
2023-01-04T23:34:54.966Z,1.00
2023-01-04T23:39:58.372Z,1.17
2023-01-04T23:45:01.772Z,1.40
2023-01-04T23:50:07.225Z,1.35
2023-01-04T23:55:10.945Z,1.20
